Time;durP1;ratioP1;P1;durP2;ratioP2;P2;SDS_P1;SDS_P2;PMS_P1;PMS_P2;Temp;Humidity;BMP_temperature;BMP_pressure;BME280_temperature;BME280_humidity;BME280_pressure;Samples;Min_cycle;Max_cycle;Signal;HPM_P1;HPM_P2
2021/07/31 00:01:08;;;;;;;4.47;2.42;;;21.40;83.60;;;;;;5001709;28;20042;-88
2021/07/31 00:03:34;;;;;;;11.85;2.58;;;21.50;84.10;;;;;;5001848;28;20046;-89
2021/07/31 00:06:00;;;;;;;5.10;2.40;;;21.40;84.20;;;;;;5002413;28;20072;-89
2021/07/31 00:08:31;;;;;;;3.55;2.50;;;21.40;84.20;;;;;;5002280;28;20038;-91
2021/07/31 00:11:03;;;;;;;3.85;2.20;;;21.40;84.10;;;;;;5031238;28;20022;-90
2021/07/31 00:13:31;;;;;;;6.93;2.85;;;21.40;84.10;;;;;;5005325;28;20070;-90
2021/07/31 00:15:56;;;;;;;8.27;2.47;;;21.40;83.90;;;;;;5002683;28;20046;-90
2021/07/31 00:18:22;;;;;;;7.80;2.60;;;21.40;83.70;;;;;;5001983;28;20045;-90
2021/07/31 00:20:48;;;;;;;3.17;2.22;;;21.50;83.70;;;;;;5002051;28;20038;-89
2021/07/31 00:23:16;;;;;;;4.22;2.90;;;21.50;83.50;;;;;;5001488;28;20038;-90
2021/07/31 00:25:41;;;;;;;4.72;2.97;;;21.50;83.30;;;;;;5002552;28;20089;-90
2021/07/31 00:28:07;;;;;;;4.32;2.63;;;21.50;83.10;;;;;;5002453;28;20042;-89
2021/07/31 00:30:44;;;;;;;9.85;2.90;;;21.50;83.20;;;;;;5003133;28;20081;-90
2021/07/31 00:33:10;;;;;;;4.45;2.58;;;21.60;83.60;;;;;;5029150;28;20046;-88
2021/07/31 00:35:36;;;;;;;11.85;2.40;;;21.60;83.20;;;;;;5001749;28;20367;-89
2021/07/31 00:38:01;;;;;;;4.32;3.22;;;21.60;83.80;;;;;;5001431;28;20050;-91
2021/07/31 00:40:30;;;;;;;6.20;2.67;;;21.60;83.10;;;;;;5001744;28;20039;-91
2021/07/31 00:42:56;;;;;;;17.02;3.15;;;21.60;83.10;;;;;;5018252;28;20034;-90
2021/07/31 00:45:25;;;;;;;3.20;2.67;;;21.60;83.10;;;;;;5003564;28;20034;-90
2021/07/31 00:47:53;;;;;;;10.13;2.97;;;21.60;83.10;;;;;;5034267;28;20257;-91
2021/07/31 00:50:23;;;;;;;4.07;3.08;;;21.60;83.20;;;;;;5020307;28;20050;-89
2021/07/31 00:52:55;;;;;;;3.35;2.65;;;21.60;83.20;;;;;;5001391;28;20038;-89
2021/07/31 00:55:22;;;;;;;9.30;2.75;;;21.60;83.30;;;;;;5001010;28;20338;-89
2021/07/31 00:57:52;;;;;;;5.50;2.80;;;21.60;83.10;;;;;;5001007;28;20038;-91
2021/07/31 01:00:18;;;;;;;5.65;2.85;;;21.50;83.80;;;;;;5000948;28;20042;-89
2021/07/31 01:02:44;;;;;;;7.07;3.10;;;21.50;83.30;;;;;;5000428;28;20045;-90
2021/07/31 01:05:10;;;;;;;4.18;3.10;;;21.50;83.50;;;;;;5000777;28;20105;-89
2021/07/31 01:07:36;;;;;;;4.88;3.25;;;21.50;83.70;;;;;;5000471;28;20046;-89
2021/07/31 01:10:03;;;;;;;4.10;2.50;;;21.50;83.90;;;;;;5000310;28;20042;-89
2021/07/31 01:12:32;;;;;;;4.97;2.78;;;21.50;83.80;;;;;;5000159;28;20038;-88
2021/07/31 01:15:00;;;;;;;4.80;2.90;;;21.50;84.40;;;;;;5000605;28;20402;-90
2021/07/31 01:17:26;;;;;;;8.00;3.78;;;21.40;83.50;;;;;;5000682;28;20070;-90
2021/07/31 01:19:52;;;;;;;6.45;2.90;;;21.50;83.60;;;;;;5017981;28;20049;-89
2021/07/31 01:22:18;;;;;;;4.13;3.10;;;21.50;83.60;;;;;;5017057;28;20049;-89
2021/07/31 01:24:44;;;;;;;4.57;3.03;;;21.50;83.30;;;;;;5001887;28;20038;-89
2021/07/31 01:27:10;;;;;;;4.07;3.08;;;21.40;83.10;;;;;;5000287;28;20041;-90
2021/07/31 01:29:35;;;;;;;3.67;2.90;;;21.40;83.40;;;;;;4999587;28;20049;-89
2021/07/31 01:32:01;;;;;;;6.30;2.97;;;21.40;83.10;;;;;;5000445;28;20046;-89
2021/07/31 01:34:42;;;;;;;5.50;2.55;;;21.50;83.40;;;;;;4999966;28;20042;-90
2021/07/31 01:37:08;;;;;;;5.47;2.88;;;21.40;83.30;;;;;;5016203;28;20129;-89
2021/07/31 01:39:33;;;;;;;4.72;2.83;;;21.50;82.70;;;;;;4999936;28;20066;-89
2021/07/31 01:42:00;;;;;;;10.63;3.28;;;21.40;82.70;;;;;;5000088;28;20092;-88
2021/07/31 01:44:26;;;;;;;3.90;2.78;;;21.50;82.60;;;;;;5000601;28;20066;-87
2021/07/31 01:47:14;;;;;;;3.35;2.72;;;21.50;82.50;;;;;;5001933;28;20041;-89
2021/07/31 01:49:40;;;;;;;4.18;2.63;;;21.50;82.60;;;;;;5016255;28;20042;-91
2021/07/31 01:52:06;;;;;;;3.47;2.70;;;21.50;82.20;;;;;;4999966;28;20314;-90
2021/07/31 01:54:31;;;;;;;5.45;3.38;;;21.50;82.10;;;;;;5000015;28;20046;-88
2021/07/31 01:57:03;;;;;;;4.22;2.70;;;21.50;81.90;;;;;;5012969;28;20053;-88
2021/07/31 01:59:28;;;;;;;5.93;2.90;;;21.50;82.00;;;;;;5023031;28;20042;-90
2021/07/31 02:01:54;;;;;;;5.85;2.63;;;21.50;81.80;;;;;;4999303;28;20112;-89
2021/07/31 02:04:24;;;;;;;3.08;2.40;;;21.40;81.60;;;;;;5011431;28;20034;-91
2021/07/31 02:06:50;;;;;;;6.13;2.50;;;21.40;81.90;;;;;;4999208;28;20382;-87
2021/07/31 02:09:30;;;;;;;5.55;3.13;;;21.40;81.40;;;;;;4999466;28;20104;-91
2021/07/31 02:11:56;;;;;;;4.90;2.33;;;21.40;81.80;;;;;;4999431;28;20402;-89
2021/07/31 02:14:22;;;;;;;3.90;2.30;;;21.30;81.40;;;;;;5000089;28;20104;-89
2021/07/31 02:16:47;;;;;;;5.97;2.47;;;21.40;81.80;;;;;;4999276;28;20385;-89
2021/07/31 02:19:13;;;;;;;2.40;2.05;;;21.30;81.80;;;;;;4999653;28;20034;-89
2021/07/31 02:21:52;;;;;;;3.38;2.47;;;21.20;81.90;;;;;;4999329;28;20136;-89
2021/07/31 02:24:23;;;;;;;2.85;2.53;;;21.20;82.10;;;;;;4998674;28;20038;-90
2021/07/31 02:26:48;;;;;;;7.38;2.50;;;21.20;82.20;;;;;;4999330;28;20045;-91
2021/07/31 02:29:15;;;;;;;7.63;2.55;;;21.20;82.20;;;;;;5015734;28;20038;-89
2021/07/31 02:31:40;;;;;;;3.25;2.88;;;21.10;82.10;;;;;;5000148;28;20053;-88
2021/07/31 02:34:06;;;;;;;3.58;2.97;;;21.10;82.40;;;;;;5009293;28;20042;-89
2021/07/31 02:36:35;;;;;;;4.22;2.05;;;21.10;82.30;;;;;;5000089;28;20081;-90
2021/07/31 02:39:00;;;;;;;2.97;2.10;;;21.00;82.80;;;;;;4998969;28;20370;-89
2021/07/31 02:41:26;;;;;;;4.13;2.33;;;21.00;82.20;;;;;;4999123;28;20039;-88
2021/07/31 02:43:51;;;;;;;2.60;1.98;;;21.10;82.40;;;;;;4998290;28;20046;-89
2021/07/31 02:46:17;;;;;;;3.85;2.00;;;21.00;82.50;;;;;;4998518;28;20038;-88
2021/07/31 02:48:43;;;;;;;2.72;1.90;;;20.90;82.40;;;;;;4998816;28;20149;-89
2021/07/31 02:51:13;;;;;;;2.38;1.75;;;20.90;83.10;;;;;;4998612;28;20078;-90
2021/07/31 02:53:39;;;;;;;2.70;2.08;;;20.90;83.10;;;;;;5015020;28;20080;-89
2021/07/31 02:56:05;;;;;;;3.47;2.80;;;20.80;83.10;;;;;;4998720;28;20030;-88
2021/07/31 02:58:31;;;;;;;3.08;1.90;;;20.80;83.50;;;;;;4998138;28;20046;-89
2021/07/31 03:01:02;;;;;;;3.88;2.47;;;20.70;83.60;;;;;;4998214;28;20129;-89
2021/07/31 03:03:28;;;;;;;4.18;1.92;;;20.70;83.80;;;;;;4998313;28;20052;-89
2021/07/31 03:05:55;;;;;;;2.75;1.80;;;20.60;83.90;;;;;;5000860;28;20042;-89
2021/07/31 03:08:20;;;;;;;2.60;2.00;;;20.60;84.40;;;;;;5014475;28;20050;-88
2021/07/31 03:10:46;;;;;;;4.22;1.90;;;20.60;83.90;;;;;;5000905;28;20046;-89
2021/07/31 03:13:11;;;;;;;3.47;2.00;;;20.60;84.00;;;;;;5008488;28;20042;-88
2021/07/31 03:15:38;;;;;;;6.88;1.83;;;20.60;84.10;;;;;;5010147;28;20038;-87
2021/07/31 03:18:04;;;;;;;2.92;2.05;;;20.60;84.30;;;;;;5002770;28;20370;-88
2021/07/31 03:20:29;;;;;;;2.42;2.05;;;20.60;84.40;;;;;;5000358;28;20041;-89
2021/07/31 03:22:55;;;;;;;4.53;2.50;;;20.50;84.70;;;;;;5000490;28;20052;-89
2021/07/31 03:25:21;;;;;;;7.32;2.25;;;20.50;84.80;;;;;;4999248;28;20042;-88
2021/07/31 03:27:46;;;;;;;3.90;2.00;;;20.50;84.40;;;;;;5002459;28;20073;-90
2021/07/31 03:30:12;;;;;;;6.88;2.42;;;20.50;84.70;;;;;;4998784;28;20042;-88
2021/07/31 03:32:38;;;;;;;3.88;1.90;;;20.50;84.90;;;;;;4998487;28;20045;-88
2021/07/31 03:35:04;;;;;;;2.75;2.03;;;20.40;84.80;;;;;;4998186;28;20307;-89
2021/07/31 03:37:29;;;;;;;7.30;2.78;;;20.40;84.80;;;;;;5009748;28;20047;-87
2021/07/31 03:39:55;;;;;;;2.70;1.70;;;20.40;84.90;;;;;;4999261;28;20299;-88
2021/07/31 03:42:20;;;;;;;4.78;2.05;;;20.40;84.50;;;;;;5011527;28;20028;-89
2021/07/31 03:44:46;;;;;;;2.08;1.40;;;20.40;84.60;;;;;;5002593;28;20148;-88
2021/07/31 03:47:11;;;;;;;6.53;2.20;;;20.30;84.60;;;;;;5014590;28;20384;-88
2021/07/31 03:49:37;;;;;;;3.97;2.15;;;20.30;84.60;;;;;;4998157;28;20306;-88
2021/07/31 03:52:03;;;;;;;5.45;1.83;;;20.30;84.70;;;;;;4998764;28;20049;-88
2021/07/31 03:54:29;;;;;;;2.42;1.83;;;20.30;84.60;;;;;;4998166;28;20129;-90
2021/07/31 03:56:54;;;;;;;6.10;1.65;;;20.30;84.50;;;;;;5014107;28;20390;-89
2021/07/31 03:59:20;;;;;;;3.92;2.05;;;20.20;84.50;;;;;;4998300;28;20046;-89
2021/07/31 04:01:46;;;;;;;3.00;1.88;;;20.20;84.70;;;;;;4997982;28;20130;-89
2021/07/31 04:04:11;;;;;;;6.68;1.70;;;20.10;84.80;;;;;;4998302;28;20414;-88
2021/07/31 04:06:37;;;;;;;4.10;1.88;;;20.10;84.90;;;;;;4997913;28;20276;-90
2021/07/31 04:09:04;;;;;;;5.55;2.22;;;20.10;85.00;;;;;;4998201;28;20053;-88
2021/07/31 04:11:32;;;;;;;3.08;2.05;;;20.10;85.20;;;;;;4998126;28;20034;-89
2021/07/31 04:13:57;;;;;;;5.38;2.30;;;20.10;85.50;;;;;;5015068;28;20035;-89
2021/07/31 04:16:23;;;;;;;4.55;2.22;;;20.10;85.70;;;;;;4998836;28;20034;-89
2021/07/31 04:18:48;;;;;;;5.65;2.25;;;20.10;85.80;;;;;;5014871;28;20034;-89
2021/07/31 04:21:14;;;;;;;5.15;2.20;;;20.10;85.90;;;;;;5001835;28;20049;-89
2021/07/31 04:23:40;;;;;;;5.25;2.30;;;20.10;85.80;;;;;;4998160;28;20043;-89
2021/07/31 04:26:16;;;;;;;3.03;2.20;;;20.10;86.10;;;;;;4999826;28;20462;-89
2021/07/31 04:28:50;;;;;;;4.13;1.70;;;20.10;86.20;;;;;;5001493;28;20042;-89
2021/07/31 04:31:16;;;;;;;3.50;2.38;;;20.10;86.20;;;;;;5001763;28;20042;-90
2021/07/31 04:33:43;;;;;;;6.13;2.00;;;20.00;86.50;;;;;;5001343;28;20039;-89
2021/07/31 04:36:09;;;;;;;6.00;2.60;;;20.00;86.60;;;;;;5018076;28;20117;-89
2021/07/31 04:38:38;;;;;;;4.95;2.17;;;20.00;86.90;;;;;;5003816;28;20303;-90
2021/07/31 04:41:04;;;;;;;2.35;2.15;;;20.00;87.10;;;;;;5001591;28;20131;-91
2021/07/31 04:43:33;;;;;;;2.95;1.73;;;19.90;86.80;;;;;;5001998;28;20044;-89
2021/07/31 04:46:00;;;;;;;3.38;2.08;;;19.90;86.70;;;;;;5001784;28;20034;-90
2021/07/31 04:48:25;;;;;;;4.47;1.80;;;20.00;87.00;;;;;;5001941;28;20153;-90
2021/07/31 04:51:02;;;;;;;3.45;2.30;;;20.00;86.70;;;;;;5009441;28;20110;-89
2021/07/31 04:53:29;;;;;;;1.88;1.40;;;20.00;86.10;;;;;;5004833;28;20038;-89
2021/07/31 04:55:55;;;;;;;2.80;1.90;;;20.00;86.10;;;;;;5001110;28;20169;-88
2021/07/31 04:58:22;;;;;;;3.70;1.90;;;20.00;86.20;;;;;;5001025;28;20038;-89
2021/07/31 05:00:55;;;;;;;2.70;1.50;;;20.00;85.50;;;;;;5001440;28;20093;-89
2021/07/31 05:03:21;;;;;;;4.50;2.10;;;20.00;85.40;;;;;;5001279;28;20042;-87
2021/07/31 05:05:47;;;;;;;2.70;1.50;;;20.00;85.30;;;;;;5001161;28;20034;-89
2021/07/31 05:08:21;;;;;;;3.40;1.75;;;20.00;85.60;;;;;;5001251;28;20042;-89
2021/07/31 05:10:49;;;;;;;2.35;1.80;;;19.90;85.60;;;;;;5014171;28;20129;-88
2021/07/31 05:13:15;;;;;;;3.80;2.42;;;20.00;85.60;;;;;;5002224;28;20378;-90
2021/07/31 05:15:42;;;;;;;7.13;1.50;;;20.00;85.60;;;;;;5000913;28;20441;-89
2021/07/31 05:18:09;;;;;;;3.38;1.50;;;20.00;84.90;;;;;;5017116;28;20085;-87
2021/07/31 05:20:41;;;;;;;9.05;1.80;;;20.00;85.00;;;;;;5001015;28;20038;-89
2021/07/31 05:23:16;;;;;;;5.95;1.70;;;20.00;85.60;;;;;;4998922;28;20046;-89
2021/07/31 05:25:43;;;;;;;2.75;1.80;;;20.00;85.60;;;;;;5010038;28;20038;-89
2021/07/31 05:28:10;;;;;;;4.75;2.60;;;20.10;85.10;;;;;;5019439;28;20049;-89
2021/07/31 05:30:42;;;;;;;2.03;1.50;;;20.10;85.10;;;;;;5003951;28;20052;-90
2021/07/31 05:33:08;;;;;;;;;;;20.10;84.40;;;;;;5001392;28;20310;-90
2021/07/31 05:35:34;;;;;;;3.67;1.60;;;20.10;84.60;;;;;;5000208;28;19909;-90
2021/07/31 05:38:01;;;;;;;5.63;1.75;;;20.10;84.10;;;;;;5016789;28;20133;-89
2021/07/31 05:40:27;;;;;;;6.78;2.20;;;20.10;84.60;;;;;;5000701;28;20409;-89
2021/07/31 05:42:52;;;;;;;4.25;1.60;;;20.10;84.00;;;;;;5000592;28;20046;-90
2021/07/31 05:45:18;;;;;;;2.08;1.20;;;20.10;84.10;;;;;;4999944;28;20109;-88
2021/07/31 05:47:44;;;;;;;2.35;1.20;;;20.20;83.80;;;;;;5001747;28;20049;-88
2021/07/31 05:50:13;;;;;;;3.55;1.25;;;20.20;84.00;;;;;;5000227;28;20076;-89
2021/07/31 05:52:47;;;;;;;2.72;1.15;;;20.20;82.40;;;;;;5016511;28;20030;-89
2021/07/31 05:55:12;;;;;;;2.03;1.08;;;20.20;82.00;;;;;;5016279;28;20065;-87
2021/07/31 05:57:38;;;;;;;2.00;1.10;;;20.20;82.00;;;;;;5000291;28;20062;-90
2021/07/31 06:00:11;;;;;;;3.67;0.85;;;20.30;81.50;;;;;;5000722;28;20038;-91
2021/07/31 06:02:36;;;;;;;2.00;1.17;;;20.30;80.20;;;;;;5029009;28;20104;-89
2021/07/31 06:05:04;;;;;;;1.98;0.88;;;20.30;79.60;;;;;;5001002;28;20038;-89
2021/07/31 06:07:30;;;;;;;3.05;1.10;;;20.40;79.40;;;;;;5016096;28;20045;-90
2021/07/31 06:09:58;;;;;;;3.97;1.23;;;20.40;78.30;;;;;;5000891;28;20050;-89
2021/07/31 06:12:24;;;;;;;5.20;0.90;;;20.50;78.70;;;;;;4999695;28;20045;-88
2021/07/31 06:14:50;;;;;;;2.05;1.10;;;20.50;78.70;;;;;;4999873;28;20563;-89
2021/07/31 06:17:16;;;;;;;1.63;0.77;;;20.60;78.90;;;;;;5017195;28;20390;-89
2021/07/31 06:19:42;;;;;;;2.05;0.80;;;20.60;77.10;;;;;;4999603;28;20374;-88
2021/07/31 06:22:28;;;;;;;3.53;0.90;;;20.60;77.50;;;;;;5000091;28;20121;-90
2021/07/31 06:24:53;;;;;;;3.53;1.75;;;20.70;76.70;;;;;;5016528;28;20284;-90
2021/07/31 06:27:19;;;;;;;1.23;0.70;;;20.80;77.20;;;;;;5000773;28;20097;-90
2021/07/31 06:30:00;;;;;;;1.48;0.80;;;20.90;76.70;;;;;;4999748;28;20616;-90
2021/07/31 06:32:26;;;;;;;3.42;0.70;;;21.00;76.60;;;;;;5015498;28;20030;-89
2021/07/31 06:34:55;;;;;;;1.83;0.88;;;21.00;75.10;;;;;;4999793;28;20116;-92
2021/07/31 06:37:23;;;;;;;5.10;0.60;;;21.00;74.60;;;;;;4999307;28;20030;-90
2021/07/31 06:39:53;;;;;;;2.45;0.80;;;21.10;74.80;;;;;;5006569;28;20034;-88
2021/07/31 06:42:19;;;;;;;2.70;0.73;;;21.20;73.90;;;;;;5015976;28;20034;-90
2021/07/31 06:44:44;;;;;;;1.95;0.70;;;21.20;74.00;;;;;;4999658;28;20394;-90
2021/07/31 06:47:26;;;;;;;2.10;0.63;;;21.20;74.40;;;;;;4999792;28;20077;-90
2021/07/31 06:49:51;;;;;;;2.45;0.60;;;21.30;74.00;;;;;;5003841;28;20050;-91
2021/07/31 06:52:17;;;;;;;1.73;0.70;;;21.30;73.20;;;;;;5010292;28;20436;-89
2021/07/31 06:54:43;;;;;;;4.80;0.60;;;21.30;73.50;;;;;;5008870;28;20038;-90
2021/07/31 06:57:11;;;;;;;4.05;0.55;;;21.40;73.10;;;;;;5003773;28;20035;-91
2021/07/31 06:59:38;;;;;;;3.63;1.20;;;21.50;72.60;;;;;;5000174;28;20053;-87
2021/07/31 07:02:07;;;;;;;2.28;0.70;;;21.50;73.40;;;;;;5000472;28;20045;-91
2021/07/31 07:04:50;;;;;;;2.03;0.95;;;21.70;73.10;;;;;;4999728;28;20034;-91
2021/07/31 07:07:22;;;;;;;1.63;0.55;;;21.80;72.80;;;;;;5015899;28;20031;-90
2021/07/31 07:09:50;;;;;;;2.63;0.70;;;21.80;72.40;;;;;;4999336;28;20045;-90
2021/07/31 07:12:30;;;;;;;1.50;0.50;;;21.80;71.40;;;;;;5005967;28;20038;-90
2021/07/31 07:14:58;;;;;;;3.85;0.90;;;21.80;71.00;;;;;;4999218;28;20486;-91
2021/07/31 07:17:24;;;;;;;1.65;0.70;;;21.90;71.00;;;;;;5016723;28;20060;-89
2021/07/31 07:19:49;;;;;;;2.75;0.70;;;21.90;70.20;;;;;;5011117;28;20283;-89
2021/07/31 07:22:15;;;;;;;4.03;0.70;;;22.00;70.60;;;;;;4999951;28;20041;-89
2021/07/31 07:24:44;;;;;;;2.83;0.70;;;22.00;70.40;;;;;;4998937;28;20049;-90
2021/07/31 07:27:10;;;;;;;3.22;0.73;;;22.00;69.50;;;;;;4998549;28;20565;-91
2021/07/31 07:29:40;;;;;;;2.78;0.60;;;22.10;70.20;;;;;;5014582;28;20034;-92
2021/07/31 07:32:06;;;;;;;4.75;0.80;;;22.20;70.30;;;;;;5015366;28;20039;-91
2021/07/31 07:34:36;;;;;;;2.35;0.70;;;22.20;70.40;;;;;;4999015;28;20042;-89
2021/07/31 07:37:02;;;;;;;1.95;0.95;;;22.40;69.90;;;;;;4998612;28;20369;-90
2021/07/31 07:39:41;;;;;;;6.22;0.98;;;22.40;69.60;;;;;;4998995;28;20056;-90
2021/07/31 07:42:25;;;;;;;1.08;0.65;;;22.60;69.40;;;;;;4998614;28;20041;-93
2021/07/31 07:44:51;;;;;;;4.47;1.30;;;22.60;68.70;;;;;;4997992;28;20034;-89
2021/07/31 07:50:07;;;;;;;3.33;0.50;;;22.70;68.60;;;;;;4999497;28;20042;-88
2021/07/31 07:52:32;;;;;;;2.60;0.60;;;22.70;67.60;;;;;;5000288;28;20386;-91
2021/07/31 07:55:24;;;;;;;1.23;0.60;;;22.60;67.10;;;;;;4998773;28;20049;-91
2021/07/31 07:57:52;;;;;;;2.03;0.80;;;22.60;66.80;;;;;;5004207;28;20030;-91
2021/07/31 08:00:18;;;;;;;1.10;0.55;;;22.60;68.30;;;;;;5006082;28;20139;-90
2021/07/31 08:02:46;;;;;;;2.28;0.68;;;22.70;68.70;;;;;;5008380;28;20066;-89
2021/07/31 08:05:13;;;;;;;1.90;0.95;;;22.80;67.70;;;;;;5003452;28;20038;-88
2021/07/31 08:07:41;;;;;;;2.90;0.80;;;22.80;67.10;;;;;;5002567;28;20074;-90
2021/07/31 08:10:08;;;;;;;2.88;0.60;;;22.90;68.30;;;;;;5001520;28;20057;-88
2021/07/31 08:12:34;;;;;;;4.53;1.08;;;22.90;67.30;;;;;;5018518;28;20097;-89
2021/07/31 08:14:59;;;;;;;1.20;0.77;;;23.00;67.10;;;;;;5001866;28;20046;-90
2021/07/31 08:17:25;;;;;;;2.30;0.50;;;23.20;66.80;;;;;;5018369;28;20034;-89
2021/07/31 08:19:50;;;;;;;2.17;0.68;;;23.20;65.30;;;;;;5001995;28;20045;-87
2021/07/31 08:22:19;;;;;;;1.77;1.23;;;23.30;66.10;;;;;;5001770;28;20064;-91
2021/07/31 08:24:45;;;;;;;4.47;0.77;;;23.30;65.40;;;;;;5008157;28;20445;-89
2021/07/31 08:27:13;;;;;;;4.78;0.43;;;23.40;65.70;;;;;;5001411;28;20125;-91
2021/07/31 08:29:42;;;;;;;1.00;0.45;;;23.50;67.70;;;;;;5002029;28;20042;-90
2021/07/31 08:32:07;;;;;;;4.43;0.73;;;23.70;66.70;;;;;;5000773;28;20038;-89
2021/07/31 08:34:33;;;;;;;4.78;0.73;;;23.80;65.50;;;;;;5006515;28;20049;-89
2021/07/31 08:37:03;;;;;;;9.10;0.77;;;24.00;66.30;;;;;;5016060;28;20113;-89
2021/07/31 08:39:44;;;;;;;1.00;0.65;;;24.20;65.90;;;;;;5002554;28;20092;-91
2021/07/31 08:42:11;;;;;;;1.98;0.50;;;24.30;65.10;;;;;;5016381;28;20038;-89
2021/07/31 08:44:37;;;;;;;4.25;0.85;;;24.30;66.10;;;;;;5000944;28;20053;-90
2021/07/31 08:47:13;;;;;;;4.25;0.60;;;24.30;65.70;;;;;;5001309;28;20038;-91
2021/07/31 08:49:46;;;;;;;1.10;0.63;;;24.30;63.20;;;;;;4990828;28;20132;-90
2021/07/31 08:52:26;;;;;;;13.60;0.93;;;24.30;63.20;;;;;;5001085;28;20034;-89
2021/07/31 08:54:52;;;;;;;7.65;0.82;;;24.40;63.10;;;;;;5014350;28;20038;-90
2021/07/31 08:57:23;;;;;;;4.07;0.77;;;24.30;61.90;;;;;;5003833;28;20066;-90
2021/07/31 08:59:48;;;;;;;0.70;0.43;;;24.30;60.80;;;;;;5004882;28;20092;-90
2021/07/31 09:02:21;;;;;;;3.20;0.60;;;24.30;61.10;;;;;;5000725;28;20038;-89
2021/07/31 09:04:53;;;;;;;0.98;0.50;;;24.20;61.70;;;;;;5002063;28;20037;-89
2021/07/31 09:07:19;;;;;;;3.83;0.47;;;24.10;61.20;;;;;;5016383;28;20050;-88
2021/07/31 09:09:53;;;;;;;3.83;0.57;;;24.10;61.70;;;;;;5002815;28;20034;-90
2021/07/31 09:12:19;;;;;;;6.93;0.50;;;24.20;62.40;;;;;;5002359;28;20046;-90
2021/07/31 09:14:53;;;;;;;0.90;0.50;;;24.20;61.30;;;;;;5001526;28;20046;-91
2021/07/31 09:17:34;;;;;;;2.58;0.50;;;24.30;61.50;;;;;;5001835;28;20034;-90
2021/07/31 09:20:10;;;;;;;1.90;0.50;;;24.40;61.30;;;;;;5001152;28;20406;-90
2021/07/31 09:22:55;;;;;;;3.50;0.60;;;24.40;59.50;;;;;;5017463;28;20038;-90
2021/07/31 09:25:23;;;;;;;1.25;0.45;;;24.40;60.90;;;;;;5000684;28;20391;-89
2021/07/31 09:27:49;;;;;;;1.08;0.40;;;24.50;59.50;;;;;;4999966;28;20112;-87
2021/07/31 09:30:14;;;;;;;1.55;0.73;;;24.50;59.80;;;;;;4999564;28;20042;-89
2021/07/31 09:32:42;;;;;;;4.32;0.40;;;24.70;60.10;;;;;;5000220;28;20034;-89
2021/07/31 09:35:27;;;;;;;4.35;0.60;;;24.80;59.30;;;;;;5000516;28;20034;-88
2021/07/31 09:37:56;;;;;;;4.63;0.45;;;24.90;59.10;;;;;;5023950;28;20049;-89
2021/07/31 09:40:30;;;;;;;2.08;0.50;;;24.90;59.30;;;;;;5001840;28;20038;-89
2021/07/31 09:42:56;;;;;;;2.50;0.57;;;25.10;59.40;;;;;;5012972;28;20042;-91
2021/07/31 09:45:35;;;;;;;1.23;0.60;;;25.30;58.20;;;;;;5007680;28;20137;-88
2021/07/31 09:48:05;;;;;;;4.22;0.50;;;25.40;59.80;;;;;;5000028;28;20034;-87
2021/07/31 09:50:39;;;;;;;1.27;0.57;;;25.40;57.30;;;;;;4999687;28;20575;-89
2021/07/31 09:53:12;;;;;;;3.63;0.50;;;25.40;58.10;;;;;;4999428;28;20065;-91
2021/07/31 09:55:46;;;;;;;1.70;0.60;;;25.40;58.20;;;;;;5016287;28;20064;-89
2021/07/31 09:58:23;;;;;;;1.30;0.50;;;25.60;58.80;;;;;;4999222;28;20042;-89
2021/07/31 10:01:02;;;;;;;6.75;0.75;;;25.60;57.30;;;;;;4999834;28;20034;-90
2021/07/31 10:03:29;;;;;;;1.95;0.80;;;25.50;57.60;;;;;;4998854;28;20045;-89
2021/07/31 10:05:55;;;;;;;5.28;0.85;;;25.40;58.60;;;;;;4999570;28;20429;-91
2021/07/31 10:08:21;;;;;;;7.00;0.88;;;25.40;57.90;;;;;;5000120;28;20051;-89
2021/07/31 10:10:49;;;;;;;1.83;0.77;;;25.40;57.60;;;;;;4999262;28;20076;-89
2021/07/31 10:13:23;;;;;;;1.60;0.80;;;25.50;57.90;;;;;;5000097;28;20134;-91
2021/07/31 10:15:52;;;;;;;1.50;0.70;;;25.40;57.90;;;;;;5000699;28;20045;-92
2021/07/31 10:18:33;;;;;;;;;;;;;;;;;;;;;
2021/07/31 10:21:06;;;;;;;1.70;0.60;;;25.30;56.80;;;;;;5000812;28;20053;-90
2021/07/31 10:23:54;;;;;;;3.30;1.13;;;25.20;57.30;;;;;;4999071;28;20084;-89
2021/07/31 10:26:27;;;;;;;4.53;0.80;;;25.20;58.10;;;;;;5000052;28;20398;-91
2021/07/31 10:29:28;;;;;;;1.40;0.45;;;25.10;58.80;;;;;;4999578;28;20136;-93
2021/07/31 10:32:29;;;;;;;2.58;0.90;;;25.00;57.50;;;;;;4996895;28;20030;-89
2021/07/31 10:35:39;;;;;;;6.28;0.80;;;25.10;58.40;;;;;;5028300;28;20128;-90
2021/07/31 10:38:10;;;;;;;4.43;0.68;;;25.10;57.20;;;;;;5017464;28;20038;-89
2021/07/31 10:40:38;;;;;;;1.75;0.60;;;25.10;58.00;;;;;;5000268;28;20035;-90
2021/07/31 10:43:07;;;;;;;1.15;0.70;;;25.10;58.60;;;;;;5016680;28;20034;-91
2021/07/31 10:45:34;;;;;;;2.05;0.63;;;25.00;57.60;;;;;;4999568;28;20031;-89
2021/07/31 10:48:21;;;;;;;1.60;0.50;;;24.90;58.70;;;;;;5000559;28;20042;-91
2021/07/31 10:51:01;;;;;;;5.63;0.68;;;24.90;59.50;;;;;;5010686;28;20039;-89
2021/07/31 10:54:19;;;;;;;3.75;0.93;;;25.00;59.10;;;;;;5010046;28;20034;-90
2021/07/31 10:57:05;;;;;;;1.83;0.60;;;25.20;58.40;;;;;;4937451;29;20035;-89
2021/07/31 10:59:59;;;;;;;1.10;0.55;;;25.30;58.00;;;;;;4930886;28;20036;-91
2021/07/31 11:02:37;;;;;;;2.70;0.88;;;25.40;56.20;;;;;;5015253;28;20042;-92
2021/07/31 11:05:05;;;;;;;2.05;0.55;;;25.50;56.40;;;;;;5008520;28;20039;-91
2021/07/31 11:08:03;;;;;;;2.15;0.70;;;25.50;57.00;;;;;;5003994;28;20112;-94
2021/07/31 11:10:48;;;;;;;3.63;0.65;;;25.60;57.30;;;;;;5015534;28;20438;-91
2021/07/31 11:13:16;;;;;;;0.65;0.50;;;25.60;56.80;;;;;;4998434;28;20050;-92
2021/07/31 11:16:04;;;;;;;1.83;0.68;;;25.70;56.50;;;;;;5015586;28;20076;-90
2021/07/31 11:18:39;;;;;;;0.93;0.40;;;25.80;58.00;;;;;;5015267;28;20042;-92
2021/07/31 11:21:18;;;;;;;1.38;0.52;;;25.80;57.60;;;;;;5016136;28;20034;-90
2021/07/31 11:24:18;;;;;;;0.88;0.55;;;26.00;56.20;;;;;;5000560;28;20122;-93
2021/07/31 11:26:59;;;;;;;1.33;0.70;;;26.20;57.80;;;;;;4998948;28;20433;-90
2021/07/31 11:29:29;;;;;;;2.20;0.52;;;26.40;55.50;;;;;;5008410;28;20034;-91
2021/07/31 11:32:19;;;;;;;0.75;0.40;;;26.40;56.90;;;;;;5008939;28;20042;-90
2021/07/31 11:38:35;;;;;;;2.47;0.57;;;26.40;56.20;;;;;;5003844;28;20065;-91
2021/07/31 11:41:20;;;;;;;1.80;0.60;;;26.30;56.60;;;;;;5002972;28;20038;-92
2021/07/31 11:43:54;;;;;;;2.22;0.40;;;26.40;55.60;;;;;;5002609;28;20048;-88
2021/07/31 11:46:48;;;;;;;2.72;0.47;;;26.30;57.00;;;;;;5003268;28;20046;-93
2021/07/31 11:49:39;;;;;;;6.30;0.65;;;26.10;56.80;;;;;;5001453;28;20069;-90
2021/07/31 11:52:11;;;;;;;1.33;0.40;;;25.90;56.00;;;;;;5002668;28;20038;-90
2021/07/31 11:54:41;;;;;;;;;;;25.60;56.40;;;;;;5018384;28;20031;-89
2021/07/31 11:57:24;;;;;;;0.57;0.50;;;25.60;57.00;;;;;;5002831;28;19917;-91
2021/07/31 12:00:02;;;;;;;2.63;0.55;;;25.70;56.90;;;;;;5003184;28;20030;-93
2021/07/31 12:02:36;;;;;;;1.27;0.40;;;25.80;56.80;;;;;;5011453;28;20106;-90
2021/07/31 12:05:05;;;;;;;2.50;0.47;;;25.90;56.60;;;;;;5008065;28;20046;-92
2021/07/31 12:07:30;;;;;;;1.70;0.50;;;26.10;57.80;;;;;;5004407;28;20040;-90
2021/07/31 12:10:14;;;;;;;1.92;0.75;;;26.20;57.10;;;;;;5003632;28;20098;-90
2021/07/31 12:12:45;;;;;;;1.27;0.60;;;26.30;57.10;;;;;;5002176;28;20166;-92
2021/07/31 12:15:40;;;;;;;1.20;0.40;;;26.30;57.00;;;;;;5017890;28;20045;-89
2021/07/31 12:18:09;;;;;;;1.42;0.60;;;26.20;57.00;;;;;;5002918;28;20085;-89
2021/07/31 12:20:45;;;;;;;5.15;0.63;;;26.20;55.60;;;;;;5002370;28;20034;-92
2021/07/31 12:23:13;;;;;;;3.80;0.55;;;26.30;55.20;;;;;;5018841;28;20070;-89
2021/07/31 12:26:03;;;;;;;1.88;0.60;;;26.30;56.70;;;;;;5001733;28;20038;-90
2021/07/31 12:28:43;;;;;;;0.70;0.50;;;26.50;55.20;;;;;;5001623;28;20038;-91
2021/07/31 12:31:36;;;;;;;0.80;0.43;;;26.60;55.60;;;;;;5001054;28;20104;-91
2021/07/31 12:34:13;;;;;;;1.65;0.40;;;26.40;56.30;;;;;;5018603;28;20053;-90
2021/07/31 12:36:55;;;;;;;0.85;0.38;;;26.50;55.90;;;;;;5002125;28;20129;-91
2021/07/31 12:39:20;;;;;;;1.35;0.60;;;26.50;56.70;;;;;;5005991;28;20034;-90
2021/07/31 12:41:56;;;;;;;3.53;0.70;;;26.70;56.60;;;;;;5007831;28;20042;-92
2021/07/31 12:44:22;;;;;;;1.48;0.40;;;26.70;56.00;;;;;;5003126;28;20057;-91
2021/07/31 12:46:47;;;;;;;1.45;0.45;;;26.80;55.30;;;;;;5000795;28;20038;-91
2021/07/31 12:49:16;;;;;;;1.98;0.88;;;27.10;56.90;;;;;;5002008;28;20042;-94
2021/07/31 12:51:41;;;;;;;1.10;0.38;;;27.30;55.00;;;;;;5001654;28;20042;-92
2021/07/31 12:54:09;;;;;;;2.05;0.40;;;27.40;54.50;;;;;;5002085;28;20048;-89
2021/07/31 12:56:35;;;;;;;2.92;0.30;;;27.40;55.40;;;;;;5001517;28;20038;-88
2021/07/31 12:59:03;;;;;;;0.82;0.32;;;27.40;53.80;;;;;;5001387;28;20031;-89
2021/07/31 13:01:37;;;;;;;0.88;0.40;;;27.50;55.80;;;;;;5000604;28;20104;-92
2021/07/31 13:04:08;;;;;;;0.95;0.50;;;27.60;53.00;;;;;;5017776;28;20038;-91
2021/07/31 13:06:33;;;;;;;4.50;0.77;;;27.70;53.60;;;;;;5001026;28;20089;-90
2021/07/31 13:09:09;;;;;;;2.75;0.40;;;27.90;54.60;;;;;;5000893;28;20066;-90
2021/07/31 13:11:58;;;;;;;2.03;1.30;;;28.00;51.80;;;;;;5004126;28;20057;-91